Moorpark, California
Current Conditions -  °F | °C
As of 11:55 PM on Thursday 23 Oct 2014 (Local Time) from KCMA Reporting Station
Clear Clear  
Wind Chill: 59°   Ceiling: Unl
Heat Index: 59°   Visibility: 10mi
Dew Point: 52°   Wind: 0mph
Humidity: 78%   Direction: NA
Pressure: 29.95"   Gusts: NA
Location:  34.29°N, 118.88°W
Report Text: KCMA 240655Z AUTO 00000KT 10SM CLR 15/11 A2995 RMK AO2 SLP151 T01500111
Loading
Personal Weather Stations






























Interactive Weather Map
Tropical Storm Tracking
New forecast layout! Learn more

10-Day Weather Forecast

Advertisements
Track Severe Weather on mobile